createdAt,value
2023-02-22T00:00:03.246Z,3.83
2023-02-22T00:02:37.155Z,3.30
2023-02-22T00:05:08.235Z,3.47
2023-02-22T00:07:38.207Z,3.50
2023-02-22T00:10:13.547Z,2.95
2023-02-22T00:12:46.921Z,3.85
2023-02-22T00:15:16.951Z,3.33
2023-02-22T00:17:47.447Z,4.13
2023-02-22T00:20:20.153Z,4.10
2023-02-22T00:22:51.929Z,5.03
2023-02-22T00:25:26.771Z,4.68
2023-02-22T00:27:58.237Z,5.20
2023-02-22T00:30:30.084Z,5.75
2023-02-22T00:33:00.897Z,5.95
2023-02-22T00:35:33.109Z,5.45
2023-02-22T00:38:04.417Z,5.82
2023-02-22T00:40:38.464Z,5.95
2023-02-22T00:43:08.721Z,7.40
2023-02-22T00:45:39.790Z,5.32
2023-02-22T00:48:11.664Z,5.10
2023-02-22T00:50:41.861Z,5.50
2023-02-22T00:53:12.081Z,4.60
2023-02-22T00:55:45.758Z,5.05
2023-02-22T00:58:15.837Z,4.03
2023-02-22T01:00:46.570Z,4.05
2023-02-22T01:03:20.522Z,4.28
2023-02-22T01:05:53.123Z,5.45
2023-02-22T01:08:25.213Z,4.95
2023-02-22T01:10:57.973Z,4.50
2023-02-22T01:13:29.444Z,5.05
2023-02-22T01:16:00.746Z,4.43
2023-02-22T01:18:37.803Z,3.88
2023-02-22T01:21:09.021Z,4.82
2023-02-22T01:23:39.068Z,4.47
2023-02-22T01:26:11.608Z,3.72
2023-02-22T01:28:42.400Z,2.97
2023-02-22T01:31:13.741Z,2.60
2023-02-22T01:33:47.464Z,3.90
2023-02-22T01:36:19.030Z,4.53
2023-02-22T01:38:49.582Z,3.25
2023-02-22T01:41:22.622Z,3.75
2023-02-22T01:43:53.065Z,4.25
2023-02-22T01:46:25.652Z,4.82
2023-02-22T01:49:01.328Z,4.47
2023-02-22T01:51:37.568Z,4.15
2023-02-22T01:54:13.745Z,3.35
2023-02-22T01:56:55.507Z,3.40
2023-02-22T01:59:26.590Z,5.00
2023-02-22T02:01:56.644Z,4.88
2023-02-22T02:04:28.138Z,4.80
2023-02-22T02:07:11.881Z,4.90
2023-02-22T02:09:50.778Z,4.68
2023-02-22T02:12:26.187Z,4.60
2023-02-22T02:17:26.906Z,3.80
2023-02-22T02:20:04.532Z,2.80
2023-02-22T02:22:46.175Z,3.55
2023-02-22T02:25:51.782Z,4.55
2023-02-22T02:28:57.073Z,3.80
2023-02-22T02:32:10.482Z,4.35
2023-02-22T02:34:51.806Z,4.25
2023-02-22T02:37:31.362Z,4.53
2023-02-22T02:40:14.058Z,3.92
2023-02-22T02:42:49.640Z,4.10
2023-02-22T02:45:25.504Z,4.80
2023-02-22T02:47:59.982Z,4.30
2023-02-22T02:50:39.546Z,4.47
2023-02-22T02:53:12.241Z,4.85
2023-02-22T02:55:42.711Z,5.00
2023-02-22T02:58:20.464Z,5.00
2023-02-22T03:00:55.689Z,4.05
2023-02-22T03:03:47.777Z,4.43
2023-02-22T03:06:35.332Z,4.25
2023-02-22T03:09:14.174Z,3.88
2023-02-22T03:11:54.222Z,5.97
2023-02-22T03:14:33.544Z,4.80
2023-02-22T03:17:12.472Z,5.35
2023-02-22T03:19:50.461Z,5.07
2023-02-22T03:22:26.592Z,5.70
2023-02-22T03:25:08.987Z,5.88
2023-02-22T03:27:47.770Z,5.50
2023-02-22T03:30:24.101Z,4.70
2023-02-22T03:32:59.637Z,4.32
2023-02-22T03:35:36.158Z,4.70
2023-02-22T03:38:14.735Z,4.78
2023-02-22T03:40:48.911Z,5.78
2023-02-22T03:43:27.782Z,4.95
2023-02-22T03:46:03.891Z,4.95
2023-02-22T03:48:40.791Z,6.07
2023-02-22T03:51:11.511Z,6.45
2023-02-22T03:53:48.130Z,6.85
2023-02-22T03:56:27.027Z,6.00
2023-02-22T03:58:58.735Z,5.10
2023-02-22T04:01:28.610Z,5.45
2023-02-22T04:03:58.751Z,5.10
2023-02-22T04:06:29.251Z,5.30
2023-02-22T04:09:02.448Z,4.63
2023-02-22T04:11:33.314Z,5.78
2023-02-22T04:14:03.380Z,5.28
2023-02-22T04:16:33.715Z,6.10
2023-02-22T04:19:04.084Z,4.93
2023-02-22T04:21:34.280Z,5.85
2023-02-22T04:24:09.065Z,6.72
2023-02-22T04:26:39.055Z,5.18
2023-02-22T04:29:10.608Z,5.03
2023-02-22T04:31:42.837Z,4.88
2023-02-22T04:34:15.075Z,4.72
2023-02-22T04:36:47.182Z,4.18
2023-02-22T04:39:20.890Z,3.42
2023-02-22T04:41:50.988Z,4.00
2023-02-22T04:44:21.163Z,3.20
2023-02-22T04:46:51.089Z,3.17
2023-02-22T04:49:21.227Z,4.28
2023-02-22T04:51:52.433Z,3.88
2023-02-22T04:54:28.673Z,3.70
2023-02-22T04:57:00.052Z,4.47
2023-02-22T04:59:30.119Z,4.57
2023-02-22T05:02:03.476Z,4.22
2023-02-22T05:04:36.306Z,5.53
2023-02-22T05:07:07.249Z,4.03
2023-02-22T05:09:46.991Z,5.05
2023-02-22T05:12:17.037Z,3.78
2023-02-22T05:14:47.394Z,3.65
2023-02-22T05:17:17.301Z,4.45
2023-02-22T05:19:47.763Z,4.43
2023-02-22T05:22:17.805Z,4.45
2023-02-22T05:24:52.328Z,3.85
2023-02-22T05:27:22.735Z,3.78
2023-02-22T05:29:52.792Z,4.15
2023-02-22T05:32:22.684Z,3.92
2023-02-22T05:34:54.975Z,4.43
2023-02-22T05:37:24.840Z,4.50
2023-02-22T05:39:57.486Z,4.13
2023-02-22T05:42:27.350Z,4.13
2023-02-22T05:44:57.263Z,4.63
2023-02-22T05:47:27.233Z,4.32
2023-02-22T05:49:57.147Z,3.90
2023-02-22T05:52:27.182Z,3.67
2023-02-22T05:55:00.009Z,4.13
2023-02-22T05:57:29.892Z,3.67
2023-02-22T06:00:00.195Z,4.70
2023-02-22T06:02:30.525Z,3.90
2023-02-22T06:05:00.473Z,4.47
2023-02-22T06:07:30.351Z,4.63
2023-02-22T06:10:02.890Z,4.53
2023-02-22T06:12:32.716Z,3.10
2023-02-22T06:15:02.820Z,3.42
2023-02-22T06:17:32.783Z,4.72
2023-02-22T06:20:02.735Z,3.67
2023-02-22T06:22:41.111Z,3.75
2023-02-22T06:25:17.291Z,3.63
2023-02-22T06:27:47.453Z,3.88
2023-02-22T06:30:21.781Z,4.68
2023-02-22T06:32:52.361Z,3.60
2023-02-22T06:35:22.272Z,3.40
2023-02-22T06:37:52.260Z,3.97
2023-02-22T06:40:29.671Z,3.67
2023-02-22T06:43:01.033Z,3.58
2023-02-22T06:45:31.331Z,2.65
2023-02-22T06:48:04.694Z,3.42
2023-02-22T06:50:35.949Z,3.72
2023-02-22T06:53:06.554Z,3.20
2023-02-22T06:55:39.605Z,3.50
2023-02-22T06:58:09.456Z,3.45
2023-02-22T07:00:39.439Z,3.47
2023-02-22T07:03:15.116Z,3.65
2023-02-22T07:05:45.649Z,3.20
2023-02-22T07:08:17.202Z,3.85
2023-02-22T07:10:50.501Z,4.15
2023-02-22T07:13:20.449Z,3.37
2023-02-22T07:15:50.618Z,2.83
2023-02-22T07:18:20.756Z,2.95
2023-02-22T07:20:50.783Z,3.58
2023-02-22T07:23:21.957Z,2.60
2023-02-22T07:25:54.887Z,3.20
2023-02-22T07:28:25.182Z,3.00
2023-02-22T07:30:55.353Z,3.13
2023-02-22T07:33:27.026Z,3.40
2023-02-22T07:35:59.451Z,2.88
2023-02-22T07:38:29.408Z,3.60
2023-02-22T07:41:02.201Z,4.15
2023-02-22T07:43:33.228Z,3.20
2023-02-22T07:46:05.129Z,3.42
2023-02-22T07:48:35.643Z,3.35
2023-02-22T07:51:09.921Z,4.15
2023-02-22T07:53:40.906Z,3.97
2023-02-22T07:56:13.471Z,3.45
2023-02-22T07:58:43.425Z,3.88
2023-02-22T08:01:14.418Z,3.25
2023-02-22T08:03:48.005Z,3.53
2023-02-22T08:06:18.130Z,3.80
2023-02-22T08:08:49.374Z,3.40
2023-02-22T08:11:22.270Z,2.95
2023-02-22T08:13:56.662Z,3.72
2023-02-22T08:16:26.497Z,2.83
2023-02-22T08:18:57.304Z,3.92
2023-02-22T08:21:27.509Z,2.95
2023-02-22T08:23:59.285Z,3.55
2023-02-22T08:26:32.118Z,4.10
2023-02-22T08:29:02.100Z,4.13
2023-02-22T08:31:32.062Z,3.17
2023-02-22T08:34:02.088Z,3.38
2023-02-22T08:36:33.124Z,3.63
2023-02-22T08:39:12.095Z,3.78
2023-02-22T08:41:45.377Z,3.35
2023-02-22T08:44:18.330Z,3.75
2023-02-22T08:46:48.440Z,3.97
2023-02-22T08:49:18.398Z,3.72
2023-02-22T08:51:49.316Z,4.20
2023-02-22T08:54:20.176Z,4.45
2023-02-22T08:57:00.354Z,4.22
2023-02-22T08:59:33.501Z,4.13
2023-02-22T09:02:05.649Z,3.33
2023-02-22T09:04:35.575Z,4.65
2023-02-22T09:07:06.456Z,5.28
2023-02-22T09:09:36.352Z,4.95
2023-02-22T09:12:13.637Z,4.70
2023-02-22T09:14:43.712Z,3.80
2023-02-22T09:17:17.392Z,3.35
2023-02-22T09:19:48.285Z,4.55
2023-02-22T09:22:18.418Z,6.60
2023-02-22T09:24:48.440Z,5.03
2023-02-22T09:27:22.940Z,4.07
2023-02-22T09:29:53.197Z,3.53
2023-02-22T09:32:23.516Z,3.60
2023-02-22T09:34:54.353Z,3.60
2023-02-22T09:37:24.486Z,3.95
2023-02-22T09:39:54.539Z,3.45
2023-02-22T09:42:33.693Z,2.78
2023-02-22T09:45:12.882Z,3.00
2023-02-22T09:47:48.100Z,3.20
2023-02-22T09:50:20.605Z,4.40
2023-02-22T09:52:57.416Z,3.90
2023-02-22T09:55:36.950Z,4.20
2023-02-22T09:58:17.030Z,2.70
2023-02-22T10:00:51.651Z,4.10
2023-02-22T10:03:28.305Z,3.83
2023-02-22T10:06:03.820Z,2.90
2023-02-22T10:08:36.205Z,4.32
2023-02-22T10:11:25.750Z,3.25
2023-02-22T10:14:10.947Z,4.35
2023-02-22T10:16:46.436Z,5.45
2023-02-22T10:19:34.936Z,5.43
2023-02-22T10:22:27.238Z,4.40
2023-02-22T10:25:04.847Z,4.80
2023-02-22T10:27:38.741Z,4.65
2023-02-22T10:30:25.218Z,5.15
2023-02-22T10:33:01.503Z,3.95
2023-02-22T10:35:33.002Z,4.63
2023-02-22T10:38:10.519Z,4.20
2023-02-22T10:40:41.466Z,6.47
2023-02-22T10:43:12.683Z,3.92
2023-02-22T10:45:45.501Z,4.85
2023-02-22T10:48:18.741Z,4.27
2023-02-22T10:50:50.652Z,3.30
2023-02-22T10:53:21.527Z,3.20
2023-02-22T10:56:10.007Z,4.72
2023-02-22T10:58:49.307Z,4.15
2023-02-22T11:01:31.149Z,6.75
2023-02-22T11:04:10.351Z,6.05
2023-02-22T11:06:41.527Z,5.65
2023-02-22T11:09:14.962Z,6.13
2023-02-22T11:11:47.174Z,4.95
2023-02-22T11:14:29.675Z,4.50
2023-02-22T11:17:04.481Z,4.32
2023-02-22T11:19:38.460Z,3.65
2023-02-22T11:22:14.916Z,4.15
2023-02-22T11:24:58.424Z,3.80
2023-02-22T11:27:34.098Z,3.85
2023-02-22T11:30:29.920Z,3.92
2023-02-22T11:33:23.980Z,3.83
2023-02-22T11:35:55.910Z,5.03
2023-02-22T11:38:27.216Z,3.72
2023-02-22T11:41:24.332Z,4.13
2023-02-22T11:43:55.623Z,3.83
2023-02-22T11:46:29.196Z,3.03
2023-02-22T11:49:05.043Z,3.28
2023-02-22T11:52:06.744Z,3.35
2023-02-22T11:54:53.494Z,3.22
2023-02-22T11:57:36.993Z,2.70
2023-02-22T12:00:24.646Z,3.10
2023-02-22T12:03:16.470Z,3.25
2023-02-22T12:06:09.355Z,2.50
2023-02-22T12:08:55.702Z,2.63
2023-02-22T12:11:34.050Z,3.88
2023-02-22T12:14:16.315Z,6.10
2023-02-22T12:17:08.409Z,4.53
2023-02-22T12:19:46.167Z,3.80
2023-02-22T12:22:25.766Z,3.78
2023-02-22T12:25:09.395Z,3.97
2023-02-22T12:27:45.284Z,3.42
2023-02-22T12:30:19.203Z,3.42
2023-02-22T12:32:53.819Z,4.90
2023-02-22T12:35:27.688Z,3.55
2023-02-22T12:38:13.074Z,5.13
2023-02-22T12:40:54.080Z,5.30
2023-02-22T12:43:30.343Z,4.28
2023-02-22T12:46:06.053Z,4.25
2023-02-22T12:48:45.055Z,3.90
2023-02-22T12:51:28.355Z,5.55
2023-02-22T12:54:12.036Z,3.83
2023-02-22T12:56:47.607Z,3.93
2023-02-22T12:59:24.613Z,4.57
2023-02-22T13:01:58.813Z,3.20
2023-02-22T13:04:31.857Z,4.20
2023-02-22T13:07:21.984Z,3.40
2023-02-22T13:10:19.270Z,2.55
2023-02-22T13:12:57.554Z,2.45
2023-02-22T13:15:34.075Z,2.55
2023-02-22T13:18:13.450Z,2.97
2023-02-22T13:20:50.561Z,2.55
2023-02-22T13:23:33.949Z,2.50
2023-02-22T13:26:13.404Z,2.20
2023-02-22T13:28:49.556Z,2.25
2023-02-22T13:31:40.034Z,3.35
2023-02-22T13:34:41.812Z,3.10
2023-02-22T13:37:39.236Z,3.50
2023-02-22T13:40:33.654Z,3.17
2023-02-22T13:43:23.890Z,2.15
2023-02-22T13:46:24.952Z,2.78
2023-02-22T13:49:28.237Z,2.80
2023-02-22T13:52:04.348Z,2.25
2023-02-22T13:54:44.952Z,2.53
2023-02-22T13:57:23.205Z,1.80
2023-02-22T14:00:41.496Z,2.38
2023-02-22T14:03:36.260Z,2.75
2023-02-22T14:08:45.641Z,2.78
2023-02-22T14:11:54.341Z,2.45
2023-02-22T14:14:24.898Z,1.92
2023-02-22T14:17:33.180Z,2.20
2023-02-22T14:20:30.256Z,2.25
2023-02-22T14:23:01.616Z,2.10
2023-02-22T14:25:43.569Z,1.85
2023-02-22T14:28:46.311Z,1.42
2023-02-22T14:31:33.623Z,1.63
2023-02-22T14:34:09.297Z,1.75
2023-02-22T14:36:52.646Z,1.85
2023-02-22T14:39:32.294Z,1.25
2023-02-22T14:42:09.103Z,1.65
2023-02-22T14:44:51.282Z,1.17
2023-02-22T14:47:28.317Z,1.27
2023-02-22T14:50:05.548Z,1.38
2023-02-22T14:52:43.547Z,1.65
2023-02-22T14:55:21.477Z,1.67
2023-02-22T14:58:06.432Z,2.38
2023-02-22T15:00:43.328Z,2.08
2023-02-22T15:03:21.871Z,1.85
2023-02-22T15:05:53.527Z,1.92
2023-02-22T15:08:28.635Z,1.23
2023-02-22T15:10:58.996Z,2.72
2023-02-22T15:13:33.027Z,2.20
2023-02-22T15:16:08.082Z,1.98
2023-02-22T15:18:43.497Z,1.50
2023-02-22T15:21:16.811Z,1.52
2023-02-22T15:23:52.199Z,1.55
2023-02-22T15:26:28.528Z,1.48
2023-02-22T15:28:59.466Z,1.60
2023-02-22T15:31:33.625Z,1.70
2023-02-22T15:36:43.775Z,1.38
2023-02-22T15:39:27.261Z,1.42
2023-02-22T15:42:09.470Z,1.60
2023-02-22T15:44:43.101Z,1.40
2023-02-22T15:47:15.935Z,1.45
2023-02-22T15:49:45.856Z,1.95
2023-02-22T15:52:22.509Z,1.30
2023-02-22T15:54:55.508Z,1.80
2023-02-22T15:57:27.555Z,1.13
2023-02-22T15:59:59.993Z,1.45
2023-02-22T16:02:41.827Z,1.40
2023-02-22T16:05:14.630Z,1.33
2023-02-22T16:07:48.119Z,1.40
2023-02-22T16:10:28.107Z,2.13
2023-02-22T16:13:25.707Z,1.20
2023-02-22T16:16:03.605Z,1.52
2023-02-22T16:18:36.407Z,1.60
2023-02-22T16:21:13.225Z,1.50
2023-02-22T16:23:51.271Z,1.50
2023-02-22T16:26:29.717Z,1.70
2023-02-22T16:29:01.596Z,1.52
2023-02-22T16:31:33.990Z,1.45
2023-02-22T16:34:05.261Z,1.95
2023-02-22T16:36:43.811Z,1.58
2023-02-22T16:39:21.055Z,1.85
2023-02-22T16:41:54.682Z,1.73
2023-02-22T16:44:25.920Z,1.70
2023-02-22T16:46:59.897Z,1.60
2023-02-22T16:49:30.512Z,1.58
2023-02-22T16:52:03.373Z,1.75
2023-02-22T16:54:36.891Z,1.85
2023-02-22T16:57:12.847Z,1.85
2023-02-22T16:59:42.782Z,1.95
2023-02-22T17:02:16.461Z,1.70
2023-02-22T17:04:50.068Z,1.50
2023-02-22T17:07:23.963Z,1.55
2023-02-22T17:09:53.800Z,1.75
2023-02-22T17:12:26.297Z,2.13
2023-02-22T17:14:56.192Z,1.65
2023-02-22T17:17:26.516Z,1.88
2023-02-22T17:19:56.591Z,1.67
2023-02-22T17:22:26.534Z,1.85
2023-02-22T17:24:56.490Z,1.92
2023-02-22T17:27:28.971Z,1.88
2023-02-22T17:29:59.371Z,1.65
2023-02-22T17:32:29.603Z,2.35
2023-02-22T17:34:59.858Z,2.03
2023-02-22T17:37:29.788Z,1.73
2023-02-22T17:39:59.717Z,2.33
2023-02-22T17:42:32.465Z,2.30
2023-02-22T17:45:02.552Z,2.25
2023-02-22T17:47:33.427Z,1.70
2023-02-22T17:50:03.667Z,2.45
2023-02-22T17:52:34.420Z,2.30
2023-02-22T17:55:07.329Z,1.85
2023-02-22T18:29:56.933Z,2.92
2023-02-22T18:32:30.948Z,2.28
2023-02-22T18:35:02.582Z,2.38
2023-02-22T18:37:32.984Z,2.42
2023-02-22T18:40:10.298Z,2.45
2023-02-22T18:42:41.945Z,2.33
2023-02-22T18:45:15.193Z,2.97
2023-02-22T18:47:50.017Z,2.73
2023-02-22T18:50:20.235Z,2.80
2023-02-22T18:52:50.111Z,2.95
2023-02-22T18:55:24.060Z,2.60
2023-02-22T18:57:57.982Z,3.72
2023-02-22T19:00:31.990Z,3.72
2023-02-22T19:03:02.021Z,3.35
2023-02-22T19:05:33.380Z,3.17
2023-02-22T19:08:11.398Z,3.45
2023-02-22T19:10:41.562Z,2.67
2023-02-22T19:13:12.191Z,2.88
2023-02-22T19:15:45.340Z,2.70
2023-02-22T19:18:15.944Z,2.90
2023-02-22T19:20:47.571Z,2.80
2023-02-22T19:23:17.664Z,3.08
2023-02-22T19:25:50.344Z,2.85
2023-02-22T19:28:20.742Z,3.13
2023-02-22T19:30:53.265Z,3.22
2023-02-22T19:33:26.132Z,3.15
2023-02-22T19:35:56.732Z,3.22
2023-02-22T19:38:26.805Z,3.03
2023-02-22T19:40:57.935Z,3.72
2023-02-22T19:43:28.652Z,3.78
2023-02-22T19:46:09.088Z,3.67
2023-02-22T19:48:40.269Z,3.75
2023-02-22T19:51:13.249Z,3.50
2023-02-22T19:53:44.632Z,3.00
2023-02-22T19:56:16.470Z,3.65
2023-02-22T19:58:48.446Z,3.25
2023-02-22T20:01:24.107Z,3.58
2023-02-22T20:03:55.044Z,3.15
2023-02-22T20:06:28.471Z,3.40
2023-02-22T20:09:01.481Z,3.80
2023-02-22T20:11:33.340Z,3.45
2023-02-22T20:14:06.637Z,3.83
2023-02-22T20:16:46.244Z,3.58
2023-02-22T20:19:20.735Z,3.38
2023-02-22T20:21:52.600Z,3.03
2023-02-22T20:24:22.999Z,3.90
2023-02-22T20:26:56.636Z,3.67
2023-02-22T20:29:35.975Z,3.47
2023-02-22T20:32:15.434Z,3.25
2023-02-22T20:34:51.842Z,3.00
2023-02-22T20:37:22.540Z,3.85
2023-02-22T20:39:54.057Z,3.40
2023-02-22T20:42:24.406Z,3.70
2023-02-22T20:44:54.958Z,3.20
2023-02-22T20:47:28.374Z,3.47
2023-02-22T20:49:58.495Z,3.60
2023-02-22T20:52:28.577Z,3.40
2023-02-22T20:54:59.200Z,3.88
2023-02-22T20:57:29.591Z,4.03
2023-02-22T21:00:00.642Z,3.80
2023-02-22T21:02:33.975Z,4.15
2023-02-22T21:05:04.375Z,2.95
2023-02-22T21:07:34.968Z,3.60
2023-02-22T21:10:06.292Z,4.00
2023-02-22T21:12:45.242Z,4.85
2023-02-22T21:15:27.460Z,4.40
2023-02-22T21:18:07.172Z,4.40
2023-02-22T21:20:55.336Z,4.13
2023-02-22T21:26:41.665Z,3.67
2023-02-22T21:29:23.976Z,3.40
2023-02-22T21:32:22.631Z,3.70
2023-02-22T21:41:45.204Z,3.90
2023-02-22T21:44:16.669Z,4.32
2023-02-22T21:46:50.882Z,3.58
2023-02-22T21:51:57.947Z,3.55
2023-02-22T21:54:35.219Z,3.55
2023-02-22T21:57:09.721Z,4.13
2023-02-22T21:59:47.887Z,3.75
2023-02-22T22:02:26.616Z,3.80
2023-02-22T22:05:03.618Z,4.30
2023-02-22T22:07:57.121Z,4.55
2023-02-22T22:11:01.637Z,4.15
2023-02-22T22:13:43.639Z,4.60
2023-02-22T22:19:27.034Z,4.72
2023-02-22T22:22:06.471Z,3.40
2023-02-22T22:27:57.541Z,3.42
2023-02-22T22:36:44.318Z,3.38
2023-02-22T22:39:27.511Z,3.38
2023-02-22T22:42:06.017Z,3.75
2023-02-22T22:45:03.220Z,3.53
2023-02-22T22:51:33.809Z,4.23
2023-02-22T22:54:29.554Z,3.55
2023-02-22T22:57:31.829Z,3.58
2023-02-22T23:03:31.070Z,3.72
2023-02-22T23:06:34.949Z,3.67
2023-02-22T23:09:22.589Z,3.47
2023-02-22T23:12:11.801Z,3.53
2023-02-22T23:14:46.287Z,3.63
2023-02-22T23:17:32.171Z,3.10
2023-02-22T23:20:11.449Z,2.80
2023-02-22T23:22:47.845Z,2.50
2023-02-22T23:25:20.228Z,2.35
2023-02-22T23:27:51.825Z,2.85
2023-02-22T23:30:22.668Z,2.65
2023-02-22T23:32:57.227Z,2.95
2023-02-22T23:35:27.801Z,2.65
2023-02-22T23:37:58.945Z,2.65
2023-02-22T23:40:30.165Z,2.70
2023-02-22T23:43:04.288Z,1.92
2023-02-22T23:45:38.875Z,2.05
2023-02-22T23:48:12.904Z,1.60
2023-02-22T23:50:44.781Z,2.08
2023-02-22T23:53:15.961Z,2.08
2023-02-22T23:55:47.163Z,1.60
2023-02-22T23:58:18.650Z,1.70
